sensor_id;sensor_type;location;lat;lon;timestamp;temperature;humidity
66598;DHT22;57424;53.128;6.406;2024-02-23T00:01:05;12.90;71.40
66598;DHT22;57424;53.128;6.406;2024-02-23T00:03:34;12.80;71.40
66598;DHT22;57424;53.128;6.406;2024-02-23T00:06:01;12.80;71.40
66598;DHT22;57424;53.128;6.406;2024-02-23T00:08:27;12.80;71.40
66598;DHT22;57424;53.128;6.406;2024-02-23T00:10:52;12.80;71.30
66598;DHT22;57424;53.128;6.406;2024-02-23T00:13:18;12.80;71.20
66598;DHT22;57424;53.128;6.406;2024-02-23T00:15:43;12.80;71.20
66598;DHT22;57424;53.128;6.406;2024-02-23T00:18:09;12.80;71.20
66598;DHT22;57424;53.128;6.406;2024-02-23T00:20:35;12.80;71.20
66598;DHT22;57424;53.128;6.406;2024-02-23T00:23:02;12.80;71.10
66598;DHT22;57424;53.128;6.406;2024-02-23T00:25:28;12.70;71.10
66598;DHT22;57424;53.128;6.406;2024-02-23T00:27:53;12.80;71.10
66598;DHT22;57424;53.128;6.406;2024-02-23T00:30:19;12.70;71.00
66598;DHT22;57424;53.128;6.406;2024-02-23T00:32:44;12.70;71.10
66598;DHT22;57424;53.128;6.406;2024-02-23T00:35:10;12.70;71.00
66598;DHT22;57424;53.128;6.406;2024-02-23T00:37:35;12.70;70.90
66598;DHT22;57424;53.128;6.406;2024-02-23T00:40:05;12.70;70.90
66598;DHT22;57424;53.128;6.406;2024-02-23T00:42:31;12.70;70.90
66598;DHT22;57424;53.128;6.406;2024-02-23T00:44:56;12.70;70.90
66598;DHT22;57424;53.128;6.406;2024-02-23T00:47:22;12.60;70.80
66598;DHT22;57424;53.128;6.406;2024-02-23T00:49:48;12.60;70.80
66598;DHT22;57424;53.128;6.406;2024-02-23T00:52:14;12.60;70.70
66598;DHT22;57424;53.128;6.406;2024-02-23T00:54:40;12.60;70.70
66598;DHT22;57424;53.128;6.406;2024-02-23T00:57:05;12.60;70.70
66598;DHT22;57424;53.128;6.406;2024-02-23T00:59:31;12.60;70.80
66598;DHT22;57424;53.128;6.406;2024-02-23T01:01:57;12.60;70.80
66598;DHT22;57424;53.128;6.406;2024-02-23T01:04:23;12.60;70.70
66598;DHT22;57424;53.128;6.406;2024-02-23T01:06:49;12.60;70.60
66598;DHT22;57424;53.128;6.406;2024-02-23T01:09:14;12.60;70.60
66598;DHT22;57424;53.128;6.406;2024-02-23T01:11:42;12.50;70.50
66598;DHT22;57424;53.128;6.406;2024-02-23T01:14:07;12.50;70.50
66598;DHT22;57424;53.128;6.406;2024-02-23T01:16:33;12.50;70.40
66598;DHT22;57424;53.128;6.406;2024-02-23T01:18:59;12.50;70.40
66598;DHT22;57424;53.128;6.406;2024-02-23T01:21:24;12.50;70.30
66598;DHT22;57424;53.128;6.406;2024-02-23T01:23:50;12.50;70.30
66598;DHT22;57424;53.128;6.406;2024-02-23T01:26:15;12.50;70.20
66598;DHT22;57424;53.128;6.406;2024-02-23T01:28:44;12.50;70.20
66598;DHT22;57424;53.128;6.406;2024-02-23T01:31:11;12.40;70.00
66598;DHT22;57424;53.128;6.406;2024-02-23T01:33:38;12.40;70.00
66598;DHT22;57424;53.128;6.406;2024-02-23T01:36:05;12.40;69.90
66598;DHT22;57424;53.128;6.406;2024-02-23T01:38:31;12.40;69.90
66598;DHT22;57424;53.128;6.406;2024-02-23T01:40:58;12.40;69.90
66598;DHT22;57424;53.128;6.406;2024-02-23T01:43:24;12.30;69.80
66598;DHT22;57424;53.128;6.406;2024-02-23T01:45:49;12.40;70.00
66598;DHT22;57424;53.128;6.406;2024-02-23T01:48:16;12.30;69.90
66598;DHT22;57424;53.128;6.406;2024-02-23T01:50:42;12.30;70.00
66598;DHT22;57424;53.128;6.406;2024-02-23T01:53:10;12.30;70.00
66598;DHT22;57424;53.128;6.406;2024-02-23T01:55:37;12.30;70.00
66598;DHT22;57424;53.128;6.406;2024-02-23T01:58:04;12.30;70.00
66598;DHT22;57424;53.128;6.406;2024-02-23T02:00:30;12.30;70.00
66598;DHT22;57424;53.128;6.406;2024-02-23T02:02:57;12.30;70.00
66598;DHT22;57424;53.128;6.406;2024-02-23T02:05:23;12.30;70.00
66598;DHT22;57424;53.128;6.406;2024-02-23T02:07:50;12.30;70.10
66598;DHT22;57424;53.128;6.406;2024-02-23T02:10:20;12.30;70.10
66598;DHT22;57424;53.128;6.406;2024-02-23T02:12:46;12.30;70.20
66598;DHT22;57424;53.128;6.406;2024-02-23T02:15:11;12.20;70.20
66598;DHT22;57424;53.128;6.406;2024-02-23T02:17:37;12.20;70.20
66598;DHT22;57424;53.128;6.406;2024-02-23T02:20:03;12.20;70.10
66598;DHT22;57424;53.128;6.406;2024-02-23T02:22:34;12.20;70.20
66598;DHT22;57424;53.128;6.406;2024-02-23T02:25:00;12.20;70.20
66598;DHT22;57424;53.128;6.406;2024-02-23T02:27:26;12.20;70.20
66598;DHT22;57424;53.128;6.406;2024-02-23T02:29:52;12.20;70.20
66598;DHT22;57424;53.128;6.406;2024-02-23T02:32:17;12.20;70.30
66598;DHT22;57424;53.128;6.406;2024-02-23T02:34:43;12.20;70.40
66598;DHT22;57424;53.128;6.406;2024-02-23T02:37:09;12.20;70.40
66598;DHT22;57424;53.128;6.406;2024-02-23T02:39:34;12.20;70.40
66598;DHT22;57424;53.128;6.406;2024-02-23T02:42:01;12.20;70.40
66598;DHT22;57424;53.128;6.406;2024-02-23T02:44:26;12.20;70.40
66598;DHT22;57424;53.128;6.406;2024-02-23T02:46:58;12.20;70.30
66598;DHT22;57424;53.128;6.406;2024-02-23T02:49:24;12.20;70.30
66598;DHT22;57424;53.128;6.406;2024-02-23T02:51:50;12.20;70.40
66598;DHT22;57424;53.128;6.406;2024-02-23T02:54:16;12.10;70.30
66598;DHT22;57424;53.128;6.406;2024-02-23T02:56:47;12.20;70.40
66598;DHT22;57424;53.128;6.406;2024-02-23T02:59:13;12.10;70.20
66598;DHT22;57424;53.128;6.406;2024-02-23T03:01:39;12.10;70.10
66598;DHT22;57424;53.128;6.406;2024-02-23T03:04:05;12.10;70.00
66598;DHT22;57424;53.128;6.406;2024-02-23T03:06:30;12.10;70.00
66598;DHT22;57424;53.128;6.406;2024-02-23T03:08:56;12.10;70.00
66598;DHT22;57424;53.128;6.406;2024-02-23T03:11:21;12.10;70.00
66598;DHT22;57424;53.128;6.406;2024-02-23T03:13:47;12.10;70.00
66598;DHT22;57424;53.128;6.406;2024-02-23T03:16:20;12.10;70.00
66598;DHT22;57424;53.128;6.406;2024-02-23T03:18:46;12.10;69.90
66598;DHT22;57424;53.128;6.406;2024-02-23T03:21:12;12.10;70.00
66598;DHT22;57424;53.128;6.406;2024-02-23T03:23:39;12.10;69.90
66598;DHT22;57424;53.128;6.406;2024-02-23T03:26:07;12.10;69.90
66598;DHT22;57424;53.128;6.406;2024-02-23T03:28:32;12.00;69.80
66598;DHT22;57424;53.128;6.406;2024-02-23T03:30:59;12.00;69.80
66598;DHT22;57424;53.128;6.406;2024-02-23T03:33:25;12.00;69.70
66598;DHT22;57424;53.128;6.406;2024-02-23T03:35:51;12.00;69.80
66598;DHT22;57424;53.128;6.406;2024-02-23T03:38:16;12.00;69.70
66598;DHT22;57424;53.128;6.406;2024-02-23T03:40:42;12.00;69.70
66598;DHT22;57424;53.128;6.406;2024-02-23T03:43:07;12.00;69.70
66598;DHT22;57424;53.128;6.406;2024-02-23T03:45:33;12.00;69.70
66598;DHT22;57424;53.128;6.406;2024-02-23T03:47:59;12.00;69.70
66598;DHT22;57424;53.128;6.406;2024-02-23T03:50:25;12.00;69.60
66598;DHT22;57424;53.128;6.406;2024-02-23T03:52:51;11.90;69.50
66598;DHT22;57424;53.128;6.406;2024-02-23T03:55:16;11.90;69.50
66598;DHT22;57424;53.128;6.406;2024-02-23T03:57:42;11.90;69.60
66598;DHT22;57424;53.128;6.406;2024-02-23T04:00:08;11.90;69.40
66598;DHT22;57424;53.128;6.406;2024-02-23T04:02:34;11.90;69.50
66598;DHT22;57424;53.128;6.406;2024-02-23T04:05:00;11.90;69.60
66598;DHT22;57424;53.128;6.406;2024-02-23T04:07:25;11.90;69.50
66598;DHT22;57424;53.128;6.406;2024-02-23T04:09:51;11.90;69.50
66598;DHT22;57424;53.128;6.406;2024-02-23T04:12:20;11.90;69.40
66598;DHT22;57424;53.128;6.406;2024-02-23T04:14:46;11.90;69.40
66598;DHT22;57424;53.128;6.406;2024-02-23T04:17:12;11.90;69.30
66598;DHT22;57424;53.128;6.406;2024-02-23T04:19:38;11.90;69.30
66598;DHT22;57424;53.128;6.406;2024-02-23T04:22:06;11.80;69.10
66598;DHT22;57424;53.128;6.406;2024-02-23T04:24:34;11.80;69.10
66598;DHT22;57424;53.128;6.406;2024-02-23T04:26:59;11.80;69.20
66598;DHT22;57424;53.128;6.406;2024-02-23T04:29:25;11.80;69.20
66598;DHT22;57424;53.128;6.406;2024-02-23T04:31:50;11.80;69.10
66598;DHT22;57424;53.128;6.406;2024-02-23T04:34:16;11.80;69.00
66598;DHT22;57424;53.128;6.406;2024-02-23T04:36:42;11.80;69.00
66598;DHT22;57424;53.128;6.406;2024-02-23T04:39:07;11.80;69.00
66598;DHT22;57424;53.128;6.406;2024-02-23T04:41:33;11.80;69.00
66598;DHT22;57424;53.128;6.406;2024-02-23T04:44:01;11.80;69.00
66598;DHT22;57424;53.128;6.406;2024-02-23T04:46:27;11.80;69.00
66598;DHT22;57424;53.128;6.406;2024-02-23T04:48:52;11.70;68.90
66598;DHT22;57424;53.128;6.406;2024-02-23T04:51:18;11.70;68.90
66598;DHT22;57424;53.128;6.406;2024-02-23T04:53:44;11.70;68.90
66598;DHT22;57424;53.128;6.406;2024-02-23T04:56:10;11.70;68.80
66598;DHT22;57424;53.128;6.406;2024-02-23T04:58:35;11.70;68.90
66598;DHT22;57424;53.128;6.406;2024-02-23T05:01:03;11.70;68.80
66598;DHT22;57424;53.128;6.406;2024-02-23T05:03:29;11.70;68.80
66598;DHT22;57424;53.128;6.406;2024-02-23T05:05:54;11.70;68.80
66598;DHT22;57424;53.128;6.406;2024-02-23T05:08:20;11.70;68.70
66598;DHT22;57424;53.128;6.406;2024-02-23T05:10:47;11.70;68.70
66598;DHT22;57424;53.128;6.406;2024-02-23T05:13:13;11.70;68.70
66598;DHT22;57424;53.128;6.406;2024-02-23T05:15:39;11.70;68.70
66598;DHT22;57424;53.128;6.406;2024-02-23T05:18:05;11.60;68.60
66598;DHT22;57424;53.128;6.406;2024-02-23T05:20:31;11.60;68.60
66598;DHT22;57424;53.128;6.406;2024-02-23T05:22:56;11.60;68.50
66598;DHT22;57424;53.128;6.406;2024-02-23T05:25:22;11.60;68.50
66598;DHT22;57424;53.128;6.406;2024-02-23T05:27:47;11.60;68.50
66598;DHT22;57424;53.128;6.406;2024-02-23T05:30:13;11.60;68.40
66598;DHT22;57424;53.128;6.406;2024-02-23T05:32:39;11.60;68.50
66598;DHT22;57424;53.128;6.406;2024-02-23T05:35:05;11.60;68.50
66598;DHT22;57424;53.128;6.406;2024-02-23T05:37:30;11.60;68.50
66598;DHT22;57424;53.128;6.406;2024-02-23T05:39:56;11.60;68.50
66598;DHT22;57424;53.128;6.406;2024-02-23T05:42:22;11.60;68.50
66598;DHT22;57424;53.128;6.406;2024-02-23T05:44:48;11.60;68.50
66598;DHT22;57424;53.128;6.406;2024-02-23T05:47:14;11.60;68.50
66598;DHT22;57424;53.128;6.406;2024-02-23T05:49:39;11.50;68.50
66598;DHT22;57424;53.128;6.406;2024-02-23T05:52:05;11.60;68.60
66598;DHT22;57424;53.128;6.406;2024-02-23T05:54:31;11.50;68.70
66598;DHT22;57424;53.128;6.406;2024-02-23T05:56:57;11.50;68.60
66598;DHT22;57424;53.128;6.406;2024-02-23T05:59:23;11.50;68.70
66598;DHT22;57424;53.128;6.406;2024-02-23T06:01:48;11.50;68.60
66598;DHT22;57424;53.128;6.406;2024-02-23T06:04:14;11.50;68.70
66598;DHT22;57424;53.128;6.406;2024-02-23T06:06:42;11.50;68.60
66598;DHT22;57424;53.128;6.406;2024-02-23T06:09:10;11.50;68.60
66598;DHT22;57424;53.128;6.406;2024-02-23T06:11:36;11.50;68.50
66598;DHT22;57424;53.128;6.406;2024-02-23T06:14:01;11.50;68.50
66598;DHT22;57424;53.128;6.406;2024-02-23T06:16:28;11.50;68.50
66598;DHT22;57424;53.128;6.406;2024-02-23T06:18:53;11.50;68.50
66598;DHT22;57424;53.128;6.406;2024-02-23T06:21:19;11.50;68.50
66598;DHT22;57424;53.128;6.406;2024-02-23T06:23:45;11.50;68.60
66598;DHT22;57424;53.128;6.406;2024-02-23T06:26:11;11.40;68.60
66598;DHT22;57424;53.128;6.406;2024-02-23T06:28:37;11.50;68.70
66598;DHT22;57424;53.128;6.406;2024-02-23T06:31:05;11.40;68.60
66598;DHT22;57424;53.128;6.406;2024-02-23T06:33:31;11.50;68.70
66598;DHT22;57424;53.128;6.406;2024-02-23T06:35:56;11.40;68.70
66598;DHT22;57424;53.128;6.406;2024-02-23T06:38:22;11.40;68.60
66598;DHT22;57424;53.128;6.406;2024-02-23T06:40:48;11.50;68.70
66598;DHT22;57424;53.128;6.406;2024-02-23T06:43:13;11.50;68.80
66598;DHT22;57424;53.128;6.406;2024-02-23T06:45:39;11.40;68.60
66598;DHT22;57424;53.128;6.406;2024-02-23T06:48:05;11.40;68.60
66598;DHT22;57424;53.128;6.406;2024-02-23T06:50:31;11.40;68.60
66598;DHT22;57424;53.128;6.406;2024-02-23T06:52:56;11.40;68.60
66598;DHT22;57424;53.128;6.406;2024-02-23T06:55:22;11.50;68.60
66598;DHT22;57424;53.128;6.406;2024-02-23T06:57:47;11.40;68.50
66598;DHT22;57424;53.128;6.406;2024-02-23T07:00:13;11.40;68.60
66598;DHT22;57424;53.128;6.406;2024-02-23T07:02:39;11.50;68.60
66598;DHT22;57424;53.128;6.406;2024-02-23T07:05:05;11.40;68.50
66598;DHT22;57424;53.128;6.406;2024-02-23T07:07:32;11.50;68.60
66598;DHT22;57424;53.128;6.406;2024-02-23T07:09:59;11.40;68.50
66598;DHT22;57424;53.128;6.406;2024-02-23T07:12:25;11.40;68.50
66598;DHT22;57424;53.128;6.406;2024-02-23T07:14:53;11.50;68.60
66598;DHT22;57424;53.128;6.406;2024-02-23T07:17:19;11.50;68.70
66598;DHT22;57424;53.128;6.406;2024-02-23T07:19:45;11.50;68.60
66598;DHT22;57424;53.128;6.406;2024-02-23T07:22:10;11.50;68.60
66598;DHT22;57424;53.128;6.406;2024-02-23T07:24:42;11.50;68.60
66598;DHT22;57424;53.128;6.406;2024-02-23T07:27:08;11.50;68.60
66598;DHT22;57424;53.128;6.406;2024-02-23T07:29:34;11.50;68.60
66598;DHT22;57424;53.128;6.406;2024-02-23T07:31:59;11.50;68.60
66598;DHT22;57424;53.128;6.406;2024-02-23T07:34:25;11.50;68.50
66598;DHT22;57424;53.128;6.406;2024-02-23T07:36:54;11.50;68.60
66598;DHT22;57424;53.128;6.406;2024-02-23T07:39:20;11.50;68.50
66598;DHT22;57424;53.128;6.406;2024-02-23T07:41:46;11.50;68.60
66598;DHT22;57424;53.128;6.406;2024-02-23T07:44:12;11.60;68.70
66598;DHT22;57424;53.128;6.406;2024-02-23T07:46:37;11.60;68.70
66598;DHT22;57424;53.128;6.406;2024-02-23T07:49:04;11.60;68.60
66598;DHT22;57424;53.128;6.406;2024-02-23T07:51:30;11.60;68.50
66598;DHT22;57424;53.128;6.406;2024-02-23T07:53:56;11.60;68.50
66598;DHT22;57424;53.128;6.406;2024-02-23T07:56:21;11.60;68.40
66598;DHT22;57424;53.128;6.406;2024-02-23T07:58:47;11.60;68.40
66598;DHT22;57424;53.128;6.406;2024-02-23T08:01:16;11.60;68.40
66598;DHT22;57424;53.128;6.406;2024-02-23T08:03:41;11.60;68.30
66598;DHT22;57424;53.128;6.406;2024-02-23T08:06:07;11.60;68.40
66598;DHT22;57424;53.128;6.406;2024-02-23T08:08:32;11.60;68.30
66598;DHT22;57424;53.128;6.406;2024-02-23T08:11:01;11.70;68.40
66598;DHT22;57424;53.128;6.406;2024-02-23T08:13:27;11.70;68.40
66598;DHT22;57424;53.128;6.406;2024-02-23T08:15:52;11.70;68.30
66598;DHT22;57424;53.128;6.406;2024-02-23T08:18:18;11.70;68.30
66598;DHT22;57424;53.128;6.406;2024-02-23T08:20:43;11.70;68.30
66598;DHT22;57424;53.128;6.406;2024-02-23T08:23:09;11.70;68.20
66598;DHT22;57424;53.128;6.406;2024-02-23T08:25:36;11.70;68.20
66598;DHT22;57424;53.128;6.406;2024-02-23T08:28:01;11.70;68.10
66598;DHT22;57424;53.128;6.406;2024-02-23T08:30:27;11.70;68.10
66598;DHT22;57424;53.128;6.406;2024-02-23T08:32:52;11.70;68.10
66598;DHT22;57424;53.128;6.406;2024-02-23T08:35:18;11.70;68.70
66598;DHT22;57424;53.128;6.406;2024-02-23T08:37:44;11.70;68.70
66598;DHT22;57424;53.128;6.406;2024-02-23T08:40:10;11.70;68.10
66598;DHT22;57424;53.128;6.406;2024-02-23T08:42:36;11.70;68.10
66598;DHT22;57424;53.128;6.406;2024-02-23T08:45:01;11.70;68.10
66598;DHT22;57424;53.128;6.406;2024-02-23T08:47:27;11.70;68.10
66598;DHT22;57424;53.128;6.406;2024-02-23T08:49:57;11.70;68.30
66598;DHT22;57424;53.128;6.406;2024-02-23T08:52:23;11.80;68.30
66598;DHT22;57424;53.128;6.406;2024-02-23T08:54:48;11.80;68.30
66598;DHT22;57424;53.128;6.406;2024-02-23T08:57:14;11.80;68.40
66598;DHT22;57424;53.128;6.406;2024-02-23T08:59:47;11.80;68.40
66598;DHT22;57424;53.128;6.406;2024-02-23T09:02:13;11.80;68.40
66598;DHT22;57424;53.128;6.406;2024-02-23T09:04:38;11.90;68.50
66598;DHT22;57424;53.128;6.406;2024-02-23T09:07:04;11.90;68.40
66598;DHT22;57424;53.128;6.406;2024-02-23T09:09:30;11.90;68.40
66598;DHT22;57424;53.128;6.406;2024-02-23T09:11:55;11.90;68.50
66598;DHT22;57424;53.128;6.406;2024-02-23T09:14:21;12.00;68.40
66598;DHT22;57424;53.128;6.406;2024-02-23T09:16:47;12.00;68.40
66598;DHT22;57424;53.128;6.406;2024-02-23T09:19:19;12.00;68.40
66598;DHT22;57424;53.128;6.406;2024-02-23T09:21:46;12.00;68.40
66598;DHT22;57424;53.128;6.406;2024-02-23T09:24:11;12.00;68.40
66598;DHT22;57424;53.128;6.406;2024-02-23T09:26:37;12.10;68.50
66598;DHT22;57424;53.128;6.406;2024-02-23T09:29:04;12.10;68.40
66598;DHT22;57424;53.128;6.406;2024-02-23T09:31:30;12.00;68.30
66598;DHT22;57424;53.128;6.406;2024-02-23T09:33:57;12.10;68.30
66598;DHT22;57424;53.128;6.406;2024-02-23T09:36:23;12.10;68.30
66598;DHT22;57424;53.128;6.406;2024-02-23T09:38:48;12.10;68.40
66598;DHT22;57424;53.128;6.406;2024-02-23T09:41:19;12.10;68.20
66598;DHT22;57424;53.128;6.406;2024-02-23T09:43:46;12.20;68.30
66598;DHT22;57424;53.128;6.406;2024-02-23T09:46:13;12.20;68.20
66598;DHT22;57424;53.128;6.406;2024-02-23T09:48:43;12.20;68.20
66598;DHT22;57424;53.128;6.406;2024-02-23T09:51:13;12.20;68.30
66598;DHT22;57424;53.128;6.406;2024-02-23T09:53:41;12.20;68.30
66598;DHT22;57424;53.128;6.406;2024-02-23T09:56:08;12.20;68.30
66598;DHT22;57424;53.128;6.406;2024-02-23T09:58:36;12.30;68.40
66598;DHT22;57424;53.128;6.406;2024-02-23T10:01:03;12.20;68.30
66598;DHT22;57424;53.128;6.406;2024-02-23T10:03:29;12.30;68.30
66598;DHT22;57424;53.128;6.406;2024-02-23T10:05:59;12.40;68.30
66598;DHT22;57424;53.128;6.406;2024-02-23T10:08:28;12.40;68.30
66598;DHT22;57424;53.128;6.406;2024-02-23T10:10:55;12.50;68.30
66598;DHT22;57424;53.128;6.406;2024-02-23T10:13:22;12.60;68.20
66598;DHT22;57424;53.128;6.406;2024-02-23T10:15:51;12.60;68.10
66598;DHT22;57424;53.128;6.406;2024-02-23T10:18:17;12.70;68.00
66598;DHT22;57424;53.128;6.406;2024-02-23T10:20:43;12.70;67.90
66598;DHT22;57424;53.128;6.406;2024-02-23T10:23:09;12.70;67.60
66598;DHT22;57424;53.128;6.406;2024-02-23T10:25:36;12.70;67.50
66598;DHT22;57424;53.128;6.406;2024-02-23T10:28:02;12.70;67.50
66598;DHT22;57424;53.128;6.406;2024-02-23T10:30:28;12.70;67.40
66598;DHT22;57424;53.128;6.406;2024-02-23T10:32:56;12.70;67.30
66598;DHT22;57424;53.128;6.406;2024-02-23T10:35:23;12.70;67.30
66598;DHT22;57424;53.128;6.406;2024-02-23T10:37:50;12.70;67.30
66598;DHT22;57424;53.128;6.406;2024-02-23T10:40:17;12.70;67.30
66598;DHT22;57424;53.128;6.406;2024-02-23T10:42:47;12.70;67.30
66598;DHT22;57424;53.128;6.406;2024-02-23T10:45:17;12.70;67.30
66598;DHT22;57424;53.128;6.406;2024-02-23T10:47:42;12.70;67.20
66598;DHT22;57424;53.128;6.406;2024-02-23T10:50:09;12.70;67.10
66598;DHT22;57424;53.128;6.406;2024-02-23T10:52:35;12.70;67.00
66598;DHT22;57424;53.128;6.406;2024-02-23T10:55:04;12.60;67.00
66598;DHT22;57424;53.128;6.406;2024-02-23T10:57:31;12.60;67.00
66598;DHT22;57424;53.128;6.406;2024-02-23T10:59:58;12.70;67.00
66598;DHT22;57424;53.128;6.406;2024-02-23T11:02:25;12.60;66.90
66598;DHT22;57424;53.128;6.406;2024-02-23T11:04:54;12.60;66.80
66598;DHT22;57424;53.128;6.406;2024-02-23T11:07:21;12.60;66.80
66598;DHT22;57424;53.128;6.406;2024-02-23T11:09:53;12.60;66.90
66598;DHT22;57424;53.128;6.406;2024-02-23T11:12:26;12.60;66.90
66598;DHT22;57424;53.128;6.406;2024-02-23T11:14:58;12.60;67.00
66598;DHT22;57424;53.128;6.406;2024-02-23T11:17:30;12.60;67.00
66598;DHT22;57424;53.128;6.406;2024-02-23T11:19:56;12.60;67.00
66598;DHT22;57424;53.128;6.406;2024-02-23T11:22:26;12.50;66.90
66598;DHT22;57424;53.128;6.406;2024-02-23T11:24:52;12.50;66.90
66598;DHT22;57424;53.128;6.406;2024-02-23T11:27:18;12.50;66.90
66598;DHT22;57424;53.128;6.406;2024-02-23T11:29:47;12.50;66.90
66598;DHT22;57424;53.128;6.406;2024-02-23T11:32:17;12.50;66.90
66598;DHT22;57424;53.128;6.406;2024-02-23T11:34:55;12.50;67.00
66598;DHT22;57424;53.128;6.406;2024-02-23T11:37:22;12.50;67.00
66598;DHT22;57424;53.128;6.406;2024-02-23T11:39:48;12.50;67.00
66598;DHT22;57424;53.128;6.406;2024-02-23T11:42:14;12.50;67.00
66598;DHT22;57424;53.128;6.406;2024-02-23T11:44:40;12.50;67.00
66598;DHT22;57424;53.128;6.406;2024-02-23T11:47:07;12.50;67.00
66598;DHT22;57424;53.128;6.406;2024-02-23T11:49:33;12.40;67.00
66598;DHT22;57424;53.128;6.406;2024-02-23T11:51:58;12.40;66.90
66598;DHT22;57424;53.128;6.406;2024-02-23T11:54:24;12.40;66.90
66598;DHT22;57424;53.128;6.406;2024-02-23T11:56:50;12.40;67.00
66598;DHT22;57424;53.128;6.406;2024-02-23T11:59:19;12.40;67.00
66598;DHT22;57424;53.128;6.406;2024-02-23T12:01:46;12.40;67.00
66598;DHT22;57424;53.128;6.406;2024-02-23T12:04:13;12.40;66.90
66598;DHT22;57424;53.128;6.406;2024-02-23T12:06:40;12.40;67.00
66598;DHT22;57424;53.128;6.406;2024-02-23T12:09:06;12.40;67.00
66598;DHT22;57424;53.128;6.406;2024-02-23T12:11:31;12.40;66.90
66598;DHT22;57424;53.128;6.406;2024-02-23T12:13:57;12.40;66.90
66598;DHT22;57424;53.128;6.406;2024-02-23T12:16:25;12.40;66.90
66598;DHT22;57424;53.128;6.406;2024-02-23T12:18:54;12.40;66.90
66598;DHT22;57424;53.128;6.406;2024-02-23T12:21:21;12.40;66.90
66598;DHT22;57424;53.128;6.406;2024-02-23T12:23:48;12.40;66.90
66598;DHT22;57424;53.128;6.406;2024-02-23T12:26:16;12.40;66.80
66598;DHT22;57424;53.128;6.406;2024-02-23T12:28:42;12.40;66.80
66598;DHT22;57424;53.128;6.406;2024-02-23T12:31:08;12.40;66.80
66598;DHT22;57424;53.128;6.406;2024-02-23T12:33:35;12.30;67.40
66598;DHT22;57424;53.128;6.406;2024-02-23T12:36:03;12.40;66.80
66598;DHT22;57424;53.128;6.406;2024-02-23T12:38:31;12.40;66.80
66598;DHT22;57424;53.128;6.406;2024-02-23T12:40:57;12.30;67.40
66598;DHT22;57424;53.128;6.406;2024-02-23T12:43:23;12.40;66.80
66598;DHT22;57424;53.128;6.406;2024-02-23T12:45:53;12.40;66.80
66598;DHT22;57424;53.128;6.406;2024-02-23T12:48:19;12.30;66.80
66598;DHT22;57424;53.128;6.406;2024-02-23T12:50:49;12.40;66.80
66598;DHT22;57424;53.128;6.406;2024-02-23T12:58:35;12.40;66.90
66598;DHT22;57424;53.128;6.406;2024-02-23T13:01:00;12.40;66.80
66598;DHT22;57424;53.128;6.406;2024-02-23T13:03:27;12.40;66.80
66598;DHT22;57424;53.128;6.406;2024-02-23T13:05:56;12.40;66.80
66598;DHT22;57424;53.128;6.406;2024-02-23T13:08:23;12.40;66.70
66598;DHT22;57424;53.128;6.406;2024-02-23T13:10:49;12.40;66.70
66598;DHT22;57424;53.128;6.406;2024-02-23T13:13:15;12.40;66.70
66598;DHT22;57424;53.128;6.406;2024-02-23T13:15:41;12.40;66.80
66598;DHT22;57424;53.128;6.406;2024-02-23T13:18:07;12.40;66.80
66598;DHT22;57424;53.128;6.406;2024-02-23T13:20:33;12.40;66.80
66598;DHT22;57424;53.128;6.406;2024-02-23T13:22:58;12.40;66.80
66598;DHT22;57424;53.128;6.406;2024-02-23T13:25:24;12.40;66.80
66598;DHT22;57424;53.128;6.406;2024-02-23T13:27:49;12.50;66.90
66598;DHT22;57424;53.128;6.406;2024-02-23T13:30:15;12.50;66.90
66598;DHT22;57424;53.128;6.406;2024-02-23T13:32:41;12.40;66.80
66598;DHT22;57424;53.128;6.406;2024-02-23T13:35:07;12.50;66.90
66598;DHT22;57424;53.128;6.406;2024-02-23T13:37:34;12.50;66.90
66598;DHT22;57424;53.128;6.406;2024-02-23T13:40:00;12.50;66.80
66598;DHT22;57424;53.128;6.406;2024-02-23T13:42:26;12.50;66.80
66598;DHT22;57424;53.128;6.406;2024-02-23T13:44:51;12.50;66.80
66598;DHT22;57424;53.128;6.406;2024-02-23T13:47:17;12.50;66.80
66598;DHT22;57424;53.128;6.406;2024-02-23T13:49:42;12.50;66.90
66598;DHT22;57424;53.128;6.406;2024-02-23T13:52:08;12.50;66.80
66598;DHT22;57424;53.128;6.406;2024-02-23T13:54:34;12.50;66.80
66598;DHT22;57424;53.128;6.406;2024-02-23T13:56:59;12.50;66.80
66598;DHT22;57424;53.128;6.406;2024-02-23T13:59:25;12.50;66.80
66598;DHT22;57424;53.128;6.406;2024-02-23T14:01:50;12.50;66.80
66598;DHT22;57424;53.128;6.406;2024-02-23T14:04:16;12.50;66.80
66598;DHT22;57424;53.128;6.406;2024-02-23T14:06:42;12.50;66.80
66598;DHT22;57424;53.128;6.406;2024-02-23T14:09:08;12.50;66.90
66598;DHT22;57424;53.128;6.406;2024-02-23T14:11:34;12.60;67.00
66598;DHT22;57424;53.128;6.406;2024-02-23T14:14:00;12.60;67.00
66598;DHT22;57424;53.128;6.406;2024-02-23T14:16:28;12.60;67.00
66598;DHT22;57424;53.128;6.406;2024-02-23T14:18:54;12.70;67.00
66598;DHT22;57424;53.128;6.406;2024-02-23T14:21:20;12.70;66.90
66598;DHT22;57424;53.128;6.406;2024-02-23T14:23:48;12.70;66.90
66598;DHT22;57424;53.128;6.406;2024-02-23T14:26:13;12.70;66.90
66598;DHT22;57424;53.128;6.406;2024-02-23T14:28:39;12.80;67.00
66598;DHT22;57424;53.128;6.406;2024-02-23T14:31:04;12.80;67.00
66598;DHT22;57424;53.128;6.406;2024-02-23T14:33:32;12.80;67.00
66598;DHT22;57424;53.128;6.406;2024-02-23T14:35:58;12.80;66.90
66598;DHT22;57424;53.128;6.406;2024-02-23T14:38:23;12.80;66.90
66598;DHT22;57424;53.128;6.406;2024-02-23T14:40:49;12.80;66.90
66598;DHT22;57424;53.128;6.406;2024-02-23T14:43:15;12.80;66.80
66598;DHT22;57424;53.128;6.406;2024-02-23T14:45:40;12.80;66.90
66598;DHT22;57424;53.128;6.406;2024-02-23T14:48:07;12.80;66.90
66598;DHT22;57424;53.128;6.406;2024-02-23T14:50:32;12.80;66.90
66598;DHT22;57424;53.128;6.406;2024-02-23T14:52:58;12.80;66.90
66598;DHT22;57424;53.128;6.406;2024-02-23T14:55:24;12.80;67.00
66598;DHT22;57424;53.128;6.406;2024-02-23T14:57:49;12.80;67.00
66598;DHT22;57424;53.128;6.406;2024-02-23T15:00:15;12.80;67.10
66598;DHT22;57424;53.128;6.406;2024-02-23T15:02:41;12.70;67.00
66598;DHT22;57424;53.128;6.406;2024-02-23T15:05:07;12.70;67.00
66598;DHT22;57424;53.128;6.406;2024-02-23T15:07:33;12.70;67.00
66598;DHT22;57424;53.128;6.406;2024-02-23T15:09:58;12.70;67.00
66598;DHT22;57424;53.128;6.406;2024-02-23T15:12:26;12.70;67.10
66598;DHT22;57424;53.128;6.406;2024-02-23T15:14:53;12.70;67.10
66598;DHT22;57424;53.128;6.406;2024-02-23T15:17:19;12.70;67.10
66598;DHT22;57424;53.128;6.406;2024-02-23T15:19:45;12.70;67.20
66598;DHT22;57424;53.128;6.406;2024-02-23T15:22:11;12.70;67.20
66598;DHT22;57424;53.128;6.406;2024-02-23T15:24:43;12.70;67.20
66598;DHT22;57424;53.128;6.406;2024-02-23T15:27:11;12.70;67.30
66598;DHT22;57424;53.128;6.406;2024-02-23T15:29:36;12.70;67.30